Lone Creek
                              Weekly Meteorological Summary
                             Station: Collegeville

              T e m p e r a t u r e   Avg   Avg   Max   Min     W  I  N  D     Time    Solar  Daily   Daily    Seas     Min
              Max  Time   Min  Time  Temp DewPt    RH    RH   Avg   Max  Gust  Time      Cal    ETo  Precip  Precip     Bat
   Date         F Occur     F Occur     F     F     %     %   mph   mph Dirof Occur     /cm2     In      In   7/1->   Volts
---------------------------------------------------------------------------------------------------------------------------
  05/13/18   79.4  1446  50.5   609  63.0  48.5    89    32   6.8  23.1   WNW  1645      731   0.24    0.00    9.45    12.4
  05/14/18   78.5  1537  47.5   620  62.3  48.4    96    36   6.2  17.5   NNW  1741      734   0.23    0.00    9.45    12.3
  05/15/18   78.3  1505  48.4   600  62.1  47.3    92    35   7.2  22.5   WNW  2335      726   0.24    0.00    9.45    12.3
  05/16/18   72.8  1430  53.1   456  61.3  45.7    79    32   6.6  18.9     W  1820      472   0.16    0.00    9.45    12.4
  05/17/18   82.7  1604  45.4   538  63.3  48.3    95    29   7.2  22.3   WNW  1504      735   0.25    0.00    9.45    12.3
  05/18/18   85.9  1645  52.0   549  65.5  51.5    89    33   7.3  21.3   NNW  1129      732   0.25    0.00    9.45    12.3
  05/19/18   78.8  1523  52.7   601  63.0  47.7    84    34  10.0  25.6     W  1747      743   0.26    0.00    9.45    12.4

                                                                                                                               
 Avg/Total   79.5        49.9        62.9  48.2    89    33   7.3  21.6                  696   1.64    0.00

===========================================================================================================================


                                  Lone Creek
                    Collegeville - Hourly Observations

                       Dew        2min  2min 10min H o u r l y   Max SolRad       Daily Daily Daily
                Temp    Pt    RH  Wind  Wind  Gust  Wind  Wind  Wind  Watts  Prec  Prec  MinT  MaxT
  Date    Time     F     F     %   Dir   mph   mph   Dir   mph  Gust    /m2    In    In     F     F
---------------------------------------------------------------------------------------------------
  05/20/18 1900  61.4  43.8    52     W  17.4  25.1     W  16.0  27.0    159  0.00  0.00  51.3  74.5
  05/20/18 1800  65.4  44.9    47   WNW  13.8  21.0     W  14.2  23.4    370  0.00  0.00  51.3  74.5
  05/20/18 1700  69.6  45.6    42   WNW  13.4  19.4     W  12.8  19.7    536  0.00  0.00  51.3  74.5
  05/20/18 1600  72.3  47.1    41   WNW  13.4  18.5   WNW  11.5  19.8    826  0.00  0.00  51.3  74.5
  05/20/18 1500  73.1  46.3    38   WNW  11.1  17.4   WNW  10.0  17.8    980  0.00  0.00  51.3  73.8
  05/20/18 1400  70.5  46.6    42   WSW  10.0  16.7   WNW  10.6  19.1   1064  0.00  0.00  51.3  71.8
  05/20/18 1300  68.9  47.4    46    NW   7.4  15.2   WNW   9.8  18.5    892  0.00  0.00  51.3  69.8
  05/20/18 1200  65.9  46.3    49   WNW  12.1  16.8   WNW  10.4  19.9    875  0.00  0.00  51.3  66.9
  05/20/18 1100  64.7  47.0    53   WNW  10.8  17.9   WNW  12.6  20.4    815  0.00  0.00  51.3  65.2
  05/20/18 1000  62.8  47.0    56    NW  14.6  22.1   WNW  13.5  22.1    671  0.00  0.00  51.3  62.9
  05/20/18 0900  59.8  47.1    63     W  14.8  21.6   WNW  13.5  27.5    491  0.00  0.00  51.3  60.5
  05/20/18 0800  57.3  47.8    71   WNW  12.1  16.3   WNW  11.9  19.3    273  0.00  0.00  51.3  57.6
  05/20/18 0700  53.9  48.1    80   WNW  10.4  15.6    NW   9.1  16.2     77  0.00  0.00  51.3  54.6
  05/20/18 0600  51.8  47.4    85    NW  10.2  14.8   WNW   9.0  16.1      1  0.00  0.00  51.3  54.6
  05/20/18 0500  52.3  47.7    84   WNW   9.9  17.1   WNW  11.5  19.8      0  0.00  0.00  51.9  54.6
  05/20/18 0400  53.0  46.1    77   WNW  12.1  19.1   WNW  11.9  19.1      0  0.00  0.00  52.6  54.6
  05/20/18 0300  53.1  46.1    77   WNW  10.8  16.0   WNW  12.0  19.4      0  0.00  0.00  52.8  54.6
  05/20/18 0200  53.5  45.6    74     W   8.7  14.4     W  10.0  17.0      0  0.00  0.00  53.3  54.6
  05/20/18 0100  54.2  45.9    73   WNW   9.4  14.3   WNW   8.7  14.8      0  0.00  0.00  53.8  54.6
  05/20/18 0000  54.2  45.6    73   WNW   8.9  12.8   WNW   9.7  15.8      0  0.00  0.00  52.7  78.8
  05/19/18 2300  54.8  45.5    71   WNW  10.1  16.2   WNW  10.1  16.7      0  0.00  0.00  52.7  78.8
  05/19/18 2200  55.5  45.8    70   WNW   9.0  14.0   WNW   9.3  16.0      0  0.00  0.00  52.7  78.8
  05/19/18 2100  57.0  44.6    63   WNW  11.3  14.7   WNW   9.9  17.2      2  0.00  0.00  52.7  78.8
  05/19/18 2000  60.4  45.3    58   WNW   9.3  16.3     W  12.2  22.4     68  0.00  0.00  52.7  78.8
  05/19/18 1900  66.0  44.9    46     W  16.0  23.2     W  15.8  24.0    254  0.00  0.00  52.7  78.8
  05/19/18 1800  71.2  45.1    39     W  14.5  22.5     W  15.4  25.6    478  0.00  0.00  52.7  78.8
  05/19/18 1700  74.8  47.3    38     W  14.4  22.6     W  13.3  22.6    674  0.00  0.00  52.7  78.8
  05/19/18 1600  77.7  48.5    36     W  12.1  19.1   WNW  12.3  21.4    849  0.00  0.00  52.7  78.8
  05/19/18 1500  77.7  48.5    36   WNW  13.9  20.2   WNW  12.2  20.8    971  0.00  0.00  52.7  78.5
  05/19/18 1400  76.4  48.4    37     W  13.8  19.5   WNW  11.3  21.4   1030  0.00  0.00  52.7  77.5
  05/19/18 1300  74.4  49.3    41   WNW  10.1  18.3   WNW   9.8  18.3   1030  0.00  0.00  52.7  75.3
  05/19/18 1200  72.2  49.1    44   WNW   9.1  18.1   WNW  10.4  18.3    966  0.00  0.00  52.7  72.2
  05/19/18 1100  69.7  48.7    47     W  10.1  15.2   WNW   9.5  15.3    847  0.00  0.00  52.7  69.9
  05/19/18 1000  66.5  49.5    54     W   8.4  14.8   WNW   9.3  15.4    662  0.00  0.00  52.7  66.8
  05/19/18 0900  62.4  48.4    60   WNW  10.7  13.8   WNW  10.7  15.8    473  0.00  0.00  52.7  62.7
  05/19/18 0800  59.1  48.7    68   WNW  11.8  15.7   WNW   8.8  15.7    262  0.00  0.00  52.7  59.5
  05/19/18 0700  55.1  48.7    79   WNW   9.0  10.8   WNW   5.7  10.8     66  0.00  0.00  52.7  58.3
  05/19/18 0600  53.0  47.7    82    NW   4.8   8.7    NW   5.5   9.2      1  0.00  0.00  52.8  58.3
  05/19/18 0500  53.4  48.1    82    NW   3.8   6.6   WNW   6.5  13.3      0  0.00  0.00  53.1  58.3
  05/19/18 0400  54.5  48.0    79     W   8.1  12.5     W   6.7  12.5      0  0.00  0.00  54.1  58.3
  05/19/18 0300  55.1  48.5    78     W   6.8   9.9     W   7.9  12.8      0  0.00  0.00  54.8  58.3
  05/19/18 0200  55.1  48.3    78   WNW   8.2  12.1   WNW   8.2  13.6      0  0.00  0.00  55.1  58.3
  05/19/18 0100  56.8  48.4    74     W   7.4  11.9     W   8.5  14.3      0  0.00  0.00  56.6  58.3
  05/19/18 0000  57.8  49.6    74     W   7.2   9.9   WNW   5.3   9.9      0  0.00  0.00  52.0  85.9
  05/18/18 2300  58.6  49.9    73   NNW   4.9   6.9    NW   6.8  14.4      0  0.00  0.00  52.0  85.9
  05/18/18 2200  59.9  50.3    71   WNW   7.1  11.7   WNW   8.4  16.1      0  0.00  0.00  52.0  85.9
  05/18/18 2100  63.6  51.4    64   WNW   6.7  12.1   WNW   9.6  16.2      2  0.00  0.00  52.0  85.9
  05/18/18 2000  68.7  52.1    55   WNW  10.3  16.6   WNW  11.3  17.4     91  0.00  0.00  52.0  85.9
  05/18/18 1900  75.0  52.8    46     W  11.7  16.2   WNW  12.1  18.1    259  0.00  0.00  52.0  85.9
  05/18/18 1800  80.2  55.3    42   WNW  13.1  17.4     W  11.6  18.5    433  0.00  0.00  52.0  85.9
  05/18/18 1700  83.2  55.4    39     W  13.4  19.8    NW   8.5  19.8    677  0.00  0.00  52.0  85.9
  05/18/18 1600  82.7  54.5    38   WNW   9.5  14.9   WNW   5.9  14.9    834  0.00  0.00  52.0  83.1
  05/18/18 1500  81.3  54.5    40   NNW   6.1  12.9   WNW   6.8  14.9    953  0.00  0.00  52.0  81.4
  05/18/18 1400  77.7  54.1    44     W   7.4  13.8   WNW   7.9  15.2   1011  0.00  0.00  52.0  78.4
  05/18/18 1300  75.2  54.4    48   WNW   8.6  15.2   WNW   8.0  15.7   1011  0.00  0.00  52.0  75.9
  05/18/18 1200  71.0  53.3    53     W   6.8  14.4   WNW   8.0  21.3    951  0.00  0.00  52.0  72.4
  05/18/18 1100  68.6  53.1    58   WNW   8.2  14.3   WNW   8.0  16.0    831  0.00  0.00  52.0  69.8
  05/18/18 1000  66.2  52.1    60     W   9.3  12.1   WNW   6.5  12.7    662  0.00  0.00  52.0  66.4
  05/18/18 0900  62.0  51.4    68   WNW   7.6  10.0   WNW   8.0  13.0    462  0.00  0.00  52.0  62.4
  05/18/18 0800  59.4  51.2    74   WNW  10.1  12.2   WNW   8.8  14.4    255  0.00  0.00  52.0  59.7
  05/18/18 0700  55.9  50.3    81   WNW   8.1  10.5   WNW   5.3  10.5     74  0.00  0.00  52.0  56.3
  05/18/18 0600  52.3  48.8    88   WNW   4.0   6.0    NW   3.4   7.0      2  0.00  0.00  52.0  55.9
  05/18/18 0500  53.0  47.9    83   NNW   1.4   3.6    NW   3.6   7.2      0  0.00  0.00  52.8  55.9
  05/18/18 0400  54.4  49.1    82   WNW   5.4   8.9    NW   5.6   9.1      0  0.00  0.00  53.9  55.9
  05/18/18 0300  54.7  49.0    81    NW   6.3   8.7    NW   5.6  11.8      0  0.00  0.00  53.9  55.9
  05/18/18 0200  54.8  48.6    79    NW   5.3   8.0   NNW   4.5   8.4      0  0.00  0.00  53.9  55.9
  05/18/18 0100  55.0  48.0    77   NNW   4.5   6.2    NW   6.8  12.3      0  0.00  0.00  54.6  55.9
  05/18/18 0000  55.7  48.3    76    NW   8.4  11.7    NW   8.2  13.8      0  0.00  0.00  45.4  82.7
  05/17/18 2300  56.5  48.7    75   WNW   6.8  14.5   WNW  10.2  19.9      0  0.00  0.00  45.4  82.7
  05/17/18 2200  57.8  49.4    74   WNW  11.2  19.8     W  12.3  20.7      0  0.00  0.00  45.4  82.7
  05/17/18 2100  60.1  50.0    69     W  12.4  20.8   WNW  12.5  21.5      2  0.00  0.00  45.4  82.7
  05/17/18 2000  65.5  50.1    58     W   9.0  15.8     W  12.5  19.9     77  0.00  0.00  45.4  82.7
  05/17/18 1900  72.6  49.0    43   WNW  14.2  19.8     W  13.1  22.0    261  0.00  0.00  45.4  82.7
  05/17/18 1800  77.6  49.6    37     W  12.7  19.2   WNW  11.1  19.2    465  0.00  0.00  45.4  82.7
  05/17/18 1700  80.7  48.8    33    NW  12.2  17.5    NW  10.4  20.4    668  0.00  0.00  45.4  82.7
  05/17/18 1600  82.1  47.9    30   NNW  13.1  18.4    NW   9.8  22.3    837  0.00  0.00  45.4  82.3
  05/17/18 1500  79.4  47.3    32    NW   8.6  13.2   WNW   8.2  17.1    956  0.00  0.00  45.4  79.7
  05/17/18 1400  77.5  48.6    36    NW   7.0  15.0    NW   8.3  17.5   1014  0.00  0.00  45.4  78.7
  05/17/18 1300  76.0  49.6    40   NNW   7.4  13.9    NW   7.7  15.6   1014  0.00  0.00  45.4  76.6
  05/17/18 1200  72.6  50.0    45    NW   7.3  14.7    NW   6.9  14.7    953  0.00  0.00  45.4  72.9
  05/17/18 1100  69.3  50.6    51    NW   6.2  14.5    NW   6.4  14.5    832  0.00  0.00  45.4  69.4
  05/17/18 1000  65.9  51.3    59   WNW   7.0  11.7    NW   7.2  14.3    662  0.00  0.00  45.4  66.7
  05/17/18 0900  62.5  50.3    64    NW   8.1  12.3   WNW   8.1  12.3    467  0.00  0.00  45.4  62.6
  05/17/18 0800  58.0  49.4    73   WNW   7.5   9.8   NNW   4.1  10.1    258  0.00  0.00  45.4  58.4
  05/17/18 0700  53.2  47.3    80   NNW   2.1   3.1    NW   1.4   3.2     72  0.00  0.00  45.4  54.8
  05/17/18 0600  47.3  44.2    89     N   2.5   4.2   NNW   1.8   4.2      1  0.00  0.00  45.4  54.8
  05/17/18 0500  47.7  44.5    89     N   1.7   2.4   NNE   1.5   3.8      0  0.00  0.00  47.3  54.8
  05/17/18 0400  49.6  45.7    86    NE   2.3   2.9   SSW   0.7   2.9      0  0.00  0.00  47.3  54.8
  05/17/18 0300  48.9  44.6    85   WSW   0.8   1.8   NNW   1.5   5.7      0  0.00  0.00  48.8  54.8
  05/17/18 0200  51.7  46.0    81   NNE   2.3   4.5   NNW   4.0   7.9      0  0.00  0.00  51.7  54.8
  05/17/18 0100  53.7  47.9    81    NW   4.6   7.8   WNW   4.7   7.9      0  0.00  0.00  53.3  54.8
  05/17/18 0000  54.4  47.4    77   WNW   6.3   8.9   WNW   6.1  11.2      0  0.00  0.00  53.1  72.8
  05/16/18 2300  56.5  46.8    70   WNW   5.0   6.7   WNW   6.2  12.3      0  0.00  0.00  53.1  72.8
  05/16/18 2200  58.4  47.7    67    NW   5.4   8.4    NW   7.2  11.6      0  0.00  0.00  53.1  72.8
  05/16/18 2100  60.5  47.0    61    NW   8.0  12.5    NW  10.0  17.5      2  0.00  0.00  53.1  72.8
  05/16/18 2000  63.4  46.0    53   WNW  10.5  15.3   WNW  11.4  17.4     77  0.00  0.00  53.1  72.8
  05/16/18 1900  66.8  46.1    47   WNW  11.9  16.8   WNW  10.8  18.9    115  0.00  0.00  53.1  72.8
  05/16/18 1800  70.4  42.0    36   WNW   7.4  11.5   WNW   5.5  18.4    238  0.00  0.00  53.1  72.8
  05/16/18 1700  71.8  41.3    33    NW   5.4  11.3   WNW   3.9  12.4    340  0.00  0.00  53.1  72.8
  05/16/18 1600  70.5  41.5    35    SE   1.8  10.5   WSW   3.9  11.1    666  0.00  0.00  53.1  72.8
  05/16/18 1500  68.7  43.4    40   WSW   1.7   8.6   WNW   4.7  12.8    763  0.00  0.00  53.1  72.8
  05/16/18 1400  68.7  43.3    40   SSW   4.1   7.2   WSW   3.7  11.3    686  0.00  0.00  53.1  69.5
  05/16/18 1300  68.8  44.3    41     E   1.3   5.8    NW   4.1  13.2    712  0.00  0.00  53.1  69.0
  05/16/18 1200  66.5  45.8    47    SW   3.6   9.0    NW   4.0  10.8    783  0.00  0.00  53.1  67.2
  05/16/18 1100  64.1  45.8    51    NW   5.8   9.4   WNW   6.7  14.0    430  0.00  0.00  53.1  64.4
  05/16/18 1000  60.9  45.8    57   WNW   7.7  13.5   WNW   8.7  14.8    333  0.00  0.00  53.1  61.7
  05/16/18 0900  59.1  47.3    65     W   8.9  13.0     W   8.8  15.7    256  0.00  0.00  53.1  59.5
  05/16/18 0800  56.7  47.1    70     W   7.4  11.4     W   5.5  11.4     71  0.00  0.00  53.1  57.0
  05/16/18 0700  55.0  47.2    75   WNW   5.7  10.6    NW   3.4  10.6     11  0.00  0.00  53.1  57.0
  05/16/18 0600  54.0  47.3    78   WNW   3.4   4.9   WNW   5.1  12.5      1  0.00  0.00  53.1  57.0
  05/16/18 0500  53.5  46.6    77    NW   4.8  12.3    NW   3.6  12.3      0  0.00  0.00  53.1  57.0
  05/16/18 0400  54.2  46.9    76   WNW   7.0  16.3   WNW   8.7  17.2      0  0.00  0.00  53.8  57.0
  05/16/18 0300  55.3  46.5    72   WNW   9.1  14.8   WNW   8.5  17.3      0  0.00  0.00  54.4  57.0
  05/16/18 0200  55.0  47.0    75   WNW   7.9  11.2   WNW   7.5  11.9      0  0.00  0.00  54.6  57.0
  05/16/18 0100  56.3  46.8    70   WNW   9.1  12.7   WNW   9.4  17.5      0  0.00  0.00  56.2  57.0
  05/16/18 0000  56.6  46.6    69   WNW  12.6  19.8   WNW  12.6  22.5      0  0.00  0.00  48.4  78.3
  05/15/18 2300  57.7  47.0    68   WNW   8.6  16.3   WNW   8.7  16.3      0  0.00  0.00  48.4  78.3
  05/15/18 2200  58.3  46.6    65   WNW   9.9  16.0   WNW  10.7  16.9      0  0.00  0.00  48.4  78.3
  05/15/18 2100  61.4  45.3    55   WNW  12.3  16.9   WNW  11.9  18.5      1  0.00  0.00  48.4  78.3
  05/15/18 2000  63.5  45.5    52    NW  13.0  17.8    NW  12.7  20.5     49  0.00  0.00  48.4  78.3
  05/15/18 1900  67.3  47.0    48    NW  12.8  17.3    NW  13.2  19.3    239  0.00  0.00  48.4  78.3
  05/15/18 1800  72.6  48.0    42    NW  12.6  17.9    NW  11.9  19.3    453  0.00  0.00  48.4  78.3
  05/15/18 1700  75.8  48.4    38    NW  13.1  18.4    NW   9.9  19.5    652  0.00  0.00  48.4  78.3
  05/15/18 1600  77.4  49.1    37    NW   9.4  17.0    NW   9.5  17.8    824  0.00  0.00  48.4  78.3
  05/15/18 1500  76.8  48.7    37   NNW   7.5  16.9    NW   8.3  16.9    947  0.00  0.00  48.4  77.5
  05/15/18 1400  75.2  47.4    37   WSW   9.3  14.4   WNW   6.6  17.3   1012  0.00  0.00  48.4  76.0
  05/15/18 1300  73.0  47.3    40    NW   6.1  14.3   WNW   6.5  15.3   1011  0.00  0.00  48.4  73.8
  05/15/18 1200  70.9  47.4    43    NW   6.1  12.8   WNW   4.8  13.4    951  0.00  0.00  48.4  71.1
  05/15/18 1100  65.9  47.3    51   WNW   4.9  11.3    NW   4.8  12.6    834  0.00  0.00  48.4  67.3
  05/15/18 1000  63.6  47.2    55   NNW   5.6   8.9    NW   5.3  12.7    665  0.00  0.00  48.4  63.8
  05/15/18 0900  60.4  47.7    63   NNW   6.2  11.8   NNW   7.4  12.2    468  0.00  0.00  48.4  61.0
  05/15/18 0800  57.3  48.1    71   NNW   7.4  11.1     N   5.9  11.1    259  0.00  0.00  48.4  57.5
  05/15/18 0700  52.5  47.8    84   NNE   4.3   7.8   NNE   3.0   7.8     71  0.00  0.00  48.4  54.7
  05/15/18 0600  48.7  45.1    87     N   2.2   4.9     N   2.2   4.9      1  0.00  0.00  48.5  54.7
  05/15/18 0500  49.9  47.1    90     N   3.5   5.7     N   2.8   6.4      0  0.00  0.00  49.1  54.7
  05/15/18 0400  50.4  47.5    90   ENE   1.9   3.1     N   1.6   4.3      0  0.00  0.00  49.1  54.7
  05/15/18 0300  51.8  47.4    85   NNE   2.1   3.1     N   3.0  11.8      0  0.00  0.00  51.1  54.7
  05/15/18 0200  54.5  47.9    78    NW   8.2  13.3   NNW   5.2  13.3      0  0.00  0.00  52.5  54.7
  05/15/18 0100  52.8  47.3    81     N   4.7   7.9   NNE   3.4   7.9      0  0.00  0.00  52.6  54.7
  05/15/18 0000  54.1  47.5    78     N   2.2   5.5     N   3.4  10.1      0  0.00  0.00  47.5  78.5
  05/14/18 2300  56.1  47.5    73     N   7.9  12.1     N   6.7  12.1      0  0.00  0.00  47.5  78.5
  05/14/18 2200  58.8  47.2    65   NNW   6.5  10.1     N   5.4  10.1      0  0.00  0.00  47.5  78.5
  05/14/18 2100  61.8  47.2    59   NNW   6.4   9.9   NNW   6.5  10.6      1  0.00  0.00  47.5  78.5
  05/14/18 2000  66.6  48.3    52   NNW   8.6  11.5   NNW   8.7  14.7     74  0.00  0.00  47.5  78.5
  05/14/18 1900  71.5  48.7    44   NNW  10.3  14.4   NNW  10.4  16.3    260  0.00  0.00  47.5  78.5
  05/14/18 1800  74.5  49.8    42    NW   9.7  15.2    NW   9.9  17.5    467  0.00  0.00  47.5  78.5
  05/14/18 1700  75.8  50.0    40    NW   9.8  16.6   WNW   9.9  16.6    666  0.00  0.00  47.5  78.5
  05/14/18 1600  76.9  50.6    40   WNW  11.1  14.9   WNW   8.4  16.7    835  0.00  0.00  47.5  78.5
  05/14/18 1500  76.5  51.0    41     W   8.4  13.7    NW   7.4  15.0    955  0.00  0.00  47.5  77.8
  05/14/18 1400  76.2  49.7    39    NW   7.4  12.7    NW   6.2  13.9   1017  0.00  0.00  47.5  76.4
  05/14/18 1300  72.4  48.1    42     W   4.0  12.8    NW   5.8  13.4   1018  0.00  0.00  47.5  73.3
  05/14/18 1200  70.0  47.5    45   NNW   6.8  12.5   WNW   6.0  12.6    956  0.00  0.00  47.5  70.2
  05/14/18 1100  66.5  48.8    53   WNW   8.1  13.8    NW   8.0  14.7    834  0.00  0.00  47.5  67.4
  05/14/18 1000  63.2  49.0    60   WNW   7.7  12.6    NW   7.1  12.6    657  0.00  0.00  47.5  63.8
  05/14/18 0900  59.9  50.4    71    NW   6.2  10.4     N   7.0  12.5    466  0.00  0.00  47.5  60.1
  05/14/18 0800  55.7  49.0    78     N   5.0   9.9   NNE   5.1  10.4    253  0.00  0.00  47.5  56.0
  05/14/18 0700  52.3  48.0    85   NNE   3.1   6.0   NNE   2.5   6.6     65  0.00  0.00  47.5  54.2
  05/14/18 0600  48.4  46.1    92     N   1.0   1.4    NW   1.2   2.7      1  0.00  0.00  47.7  54.2
  05/14/18 0500  49.4  46.8    91    NW   2.5   5.5   NNW   4.2   7.0      0  0.00  0.00  49.1  54.2
  05/14/18 0400  51.0  47.1    87     N   4.4   6.2     N   4.9   8.9      0  0.00  0.00  51.0  54.2
  05/14/18 0300  51.9  47.1    84     N   5.4   7.5     N   4.8   8.0      0  0.00  0.00  51.7  54.2
  05/14/18 0200  52.8  47.5    82   NNE   4.5   7.9     N   4.7   9.1      0  0.00  0.00  52.5  54.2
  05/14/18 0100  53.0  47.4    81   NNE   3.7   6.8   NNE   3.9   7.2      0  0.00  0.00  52.8  54.2
  05/14/18 0000  53.9  47.6    79   NNE   2.9   5.3   NNE   3.1   8.2      0  0.00  0.00  50.5  79.4
  05/13/18 2300  55.6  47.1    73     N   6.3   8.2     N   5.7  11.2      0  0.00  0.00  50.5  79.4
  05/13/18 2200  57.7  47.8    69     N   7.8  11.4     N   6.8  11.4      0  0.00  0.00  50.5  79.4
  05/13/18 2100  60.1  48.7    66     N   7.5  11.4     N   8.1  16.7      1  0.00  0.00  50.5  79.4
  05/13/18 2000  64.1  49.3    59   NNW  10.0  13.3   NNW  10.9  17.3     69  0.00  0.00  50.5  79.4
  05/13/18 1900  68.9  50.1    51   NNW  12.4  16.8   NNW  12.2  18.2    251  0.00  0.00  50.5  79.4